sensor_id;sensor_type;location;lat;lon;timestamp;temperature;humidity
61912;DHT22;49973;52.084;5.412;2023-08-12T00:02:05;20.80;99.90
61912;DHT22;49973;52.084;5.412;2023-08-12T00:04:34;20.70;99.90
61912;DHT22;49973;52.084;5.412;2023-08-12T00:07:03;20.70;99.90
61912;DHT22;49973;52.084;5.412;2023-08-12T00:09:32;20.70;99.90
61912;DHT22;49973;52.084;5.412;2023-08-12T00:12:00;20.70;99.90
61912;DHT22;49973;52.084;5.412;2023-08-12T00:14:29;20.70;99.90
61912;DHT22;49973;52.084;5.412;2023-08-12T00:16:59;20.70;99.90
61912;DHT22;49973;52.084;5.412;2023-08-12T00:19:28;20.70;99.90
61912;DHT22;49973;52.084;5.412;2023-08-12T00:21:58;20.70;99.90
61912;DHT22;49973;52.084;5.412;2023-08-12T00:24:27;20.70;99.90
61912;DHT22;49973;52.084;5.412;2023-08-12T00:26:56;20.70;99.90
61912;DHT22;49973;52.084;5.412;2023-08-12T00:29:25;20.70;99.90
61912;DHT22;49973;52.084;5.412;2023-08-12T00:31:53;20.70;99.90
61912;DHT22;49973;52.084;5.412;2023-08-12T00:34:24;20.70;99.90
61912;DHT22;49973;52.084;5.412;2023-08-12T00:36:53;20.70;99.90
61912;DHT22;49973;52.084;5.412;2023-08-12T00:39:22;20.60;99.90
61912;DHT22;49973;52.084;5.412;2023-08-12T00:41:51;20.60;99.90
61912;DHT22;49973;52.084;5.412;2023-08-12T00:44:20;20.60;99.90
61912;DHT22;49973;52.084;5.412;2023-08-12T00:46:49;20.60;99.90
61912;DHT22;49973;52.084;5.412;2023-08-12T00:49:19;20.60;99.90
61912;DHT22;49973;52.084;5.412;2023-08-12T00:51:50;20.50;99.90
61912;DHT22;49973;52.084;5.412;2023-08-12T00:54:24;20.50;99.90
61912;DHT22;49973;52.084;5.412;2023-08-12T00:56:53;20.50;99.90
61912;DHT22;49973;52.084;5.412;2023-08-12T00:59:22;20.50;99.90
61912;DHT22;49973;52.084;5.412;2023-08-12T01:01:51;20.50;99.90
61912;DHT22;49973;52.084;5.412;2023-08-12T01:04:20;20.50;99.90
61912;DHT22;49973;52.084;5.412;2023-08-12T01:06:52;20.50;99.90
61912;DHT22;49973;52.084;5.412;2023-08-12T01:09:20;20.50;99.90
61912;DHT22;49973;52.084;5.412;2023-08-12T01:11:53;20.50;99.90
61912;DHT22;49973;52.084;5.412;2023-08-12T01:14:27;20.40;99.90
61912;DHT22;49973;52.084;5.412;2023-08-12T01:17:00;20.40;99.90
61912;DHT22;49973;52.084;5.412;2023-08-12T01:19:33;20.40;99.90
61912;DHT22;49973;52.084;5.412;2023-08-12T01:22:06;20.40;99.90
61912;DHT22;49973;52.084;5.412;2023-08-12T01:24:40;20.40;99.90
61912;DHT22;49973;52.084;5.412;2023-08-12T01:27:11;20.30;99.90
61912;DHT22;49973;52.084;5.412;2023-08-12T01:29:43;20.30;99.90
61912;DHT22;49973;52.084;5.412;2023-08-12T01:32:22;20.30;99.90
61912;DHT22;49973;52.084;5.412;2023-08-12T01:35:01;20.30;99.90
61912;DHT22;49973;52.084;5.412;2023-08-12T01:37:33;20.30;99.90
61912;DHT22;49973;52.084;5.412;2023-08-12T01:40:07;20.30;99.90
61912;DHT22;49973;52.084;5.412;2023-08-12T01:42:39;20.30;99.90
61912;DHT22;49973;52.084;5.412;2023-08-12T01:45:08;20.30;99.90
61912;DHT22;49973;52.084;5.412;2023-08-12T01:47:38;20.30;99.90
61912;DHT22;49973;52.084;5.412;2023-08-12T01:50:07;20.30;99.90
61912;DHT22;49973;52.084;5.412;2023-08-12T01:52:37;20.30;99.90
61912;DHT22;49973;52.084;5.412;2023-08-12T01:55:08;20.30;99.90
61912;DHT22;49973;52.084;5.412;2023-08-12T01:57:37;20.30;99.90
61912;DHT22;49973;52.084;5.412;2023-08-12T02:00:06;20.20;99.90
61912;DHT22;49973;52.084;5.412;2023-08-12T02:02:44;20.20;99.90
61912;DHT22;49973;52.084;5.412;2023-08-12T02:05:14;20.30;99.90
61912;DHT22;49973;52.084;5.412;2023-08-12T02:07:43;20.30;99.90
61912;DHT22;49973;52.084;5.412;2023-08-12T02:10:14;20.20;99.90
61912;DHT22;49973;52.084;5.412;2023-08-12T02:12:43;20.30;99.90
61912;DHT22;49973;52.084;5.412;2023-08-12T02:15:12;20.30;99.90
61912;DHT22;49973;52.084;5.412;2023-08-12T02:17:40;20.30;99.90
61912;DHT22;49973;52.084;5.412;2023-08-12T02:20:10;20.30;99.90
61912;DHT22;49973;52.084;5.412;2023-08-12T02:22:39;20.30;99.90
61912;DHT22;49973;52.084;5.412;2023-08-12T02:25:08;20.30;99.90
61912;DHT22;49973;52.084;5.412;2023-08-12T02:27:38;20.30;99.90
61912;DHT22;49973;52.084;5.412;2023-08-12T02:30:07;20.30;99.90
61912;DHT22;49973;52.084;5.412;2023-08-12T02:32:37;20.40;99.90
61912;DHT22;49973;52.084;5.412;2023-08-12T02:35:06;20.30;99.90
61912;DHT22;49973;52.084;5.412;2023-08-12T02:37:34;20.30;99.90
61912;DHT22;49973;52.084;5.412;2023-08-12T02:40:04;20.40;99.90
61912;DHT22;49973;52.084;5.412;2023-08-12T02:42:33;20.40;99.90
61912;DHT22;49973;52.084;5.412;2023-08-12T02:45:05;20.40;99.90
61912;DHT22;49973;52.084;5.412;2023-08-12T02:47:34;20.40;99.90
61912;DHT22;49973;52.084;5.412;2023-08-12T02:50:03;20.40;99.90
61912;DHT22;49973;52.084;5.412;2023-08-12T02:52:32;20.40;99.90
61912;DHT22;49973;52.084;5.412;2023-08-12T02:55:01;20.40;99.90
61912;DHT22;49973;52.084;5.412;2023-08-12T02:57:30;20.40;99.90
61912;DHT22;49973;52.084;5.412;2023-08-12T02:59:59;20.40;99.90
61912;DHT22;49973;52.084;5.412;2023-08-12T03:02:32;20.40;99.90
61912;DHT22;49973;52.084;5.412;2023-08-12T03:05:01;20.40;99.90
61912;DHT22;49973;52.084;5.412;2023-08-12T03:07:30;20.40;99.90
61912;DHT22;49973;52.084;5.412;2023-08-12T03:09:59;20.40;99.90
61912;DHT22;49973;52.084;5.412;2023-08-12T03:12:28;20.50;99.90
61912;DHT22;49973;52.084;5.412;2023-08-12T03:14:56;20.50;99.90
61912;DHT22;49973;52.084;5.412;2023-08-12T03:17:25;20.50;99.90
61912;DHT22;49973;52.084;5.412;2023-08-12T03:19:56;20.50;99.90
61912;DHT22;49973;52.084;5.412;2023-08-12T03:22:29;20.50;99.90
61912;DHT22;49973;52.084;5.412;2023-08-12T03:24:58;20.50;99.90
61912;DHT22;49973;52.084;5.412;2023-08-12T03:27:27;20.60;99.90
61912;DHT22;49973;52.084;5.412;2023-08-12T03:29:56;20.60;99.90
61912;DHT22;49973;52.084;5.412;2023-08-12T03:32:25;20.60;99.90
61912;DHT22;49973;52.084;5.412;2023-08-12T03:34:56;20.60;99.90
61912;DHT22;49973;52.084;5.412;2023-08-12T03:37:27;20.60;99.90
61912;DHT22;49973;52.084;5.412;2023-08-12T03:39:56;20.60;99.90
61912;DHT22;49973;52.084;5.412;2023-08-12T03:42:26;20.60;99.90
61912;DHT22;49973;52.084;5.412;2023-08-12T03:45:00;20.60;99.90
61912;DHT22;49973;52.084;5.412;2023-08-12T03:47:28;20.60;99.90
61912;DHT22;49973;52.084;5.412;2023-08-12T03:49:59;20.60;99.90
61912;DHT22;49973;52.084;5.412;2023-08-12T03:52:30;20.60;99.90
61912;DHT22;49973;52.084;5.412;2023-08-12T03:54:59;20.50;99.90
61912;DHT22;49973;52.084;5.412;2023-08-12T03:57:28;20.60;99.90
61912;DHT22;49973;52.084;5.412;2023-08-12T03:59:58;20.70;99.90
61912;DHT22;49973;52.084;5.412;2023-08-12T04:02:28;20.70;99.90
61912;DHT22;49973;52.084;5.412;2023-08-12T04:04:58;20.60;99.90
61912;DHT22;49973;52.084;5.412;2023-08-12T04:07:27;20.60;99.90
61912;DHT22;49973;52.084;5.412;2023-08-12T04:09:56;20.70;99.90
61912;DHT22;49973;52.084;5.412;2023-08-12T04:12:25;20.70;99.90
61912;DHT22;49973;52.084;5.412;2023-08-12T04:14:54;20.70;99.90
61912;DHT22;49973;52.084;5.412;2023-08-12T04:17:22;20.70;99.90
61912;DHT22;49973;52.084;5.412;2023-08-12T04:19:51;20.70;99.90
61912;DHT22;49973;52.084;5.412;2023-08-12T04:22:22;20.70;99.90
61912;DHT22;49973;52.084;5.412;2023-08-12T04:24:50;20.70;99.90
61912;DHT22;49973;52.084;5.412;2023-08-12T04:27:20;20.70;99.90
61912;DHT22;49973;52.084;5.412;2023-08-12T04:29:49;20.80;99.90
61912;DHT22;49973;52.084;5.412;2023-08-12T04:32:19;20.70;99.90
61912;DHT22;49973;52.084;5.412;2023-08-12T04:34:48;20.70;99.90
61912;DHT22;49973;52.084;5.412;2023-08-12T04:37:17;20.70;99.90
61912;DHT22;49973;52.084;5.412;2023-08-12T04:39:47;20.80;99.90
61912;DHT22;49973;52.084;5.412;2023-08-12T04:42:16;20.80;99.90
61912;DHT22;49973;52.084;5.412;2023-08-12T04:44:45;20.80;99.90
61912;DHT22;49973;52.084;5.412;2023-08-12T04:47:15;20.80;99.90
61912;DHT22;49973;52.084;5.412;2023-08-12T04:49:44;20.90;99.90
61912;DHT22;49973;52.084;5.412;2023-08-12T04:52:13;20.90;99.90
61912;DHT22;49973;52.084;5.412;2023-08-12T04:54:42;20.90;99.90
61912;DHT22;49973;52.084;5.412;2023-08-12T04:57:12;20.90;99.90
61912;DHT22;49973;52.084;5.412;2023-08-12T04:59:41;20.90;99.90
61912;DHT22;49973;52.084;5.412;2023-08-12T05:02:10;21.00;99.90
61912;DHT22;49973;52.084;5.412;2023-08-12T05:04:39;21.00;99.90
61912;DHT22;49973;52.084;5.412;2023-08-12T05:07:08;21.00;99.90
61912;DHT22;49973;52.084;5.412;2023-08-12T05:09:37;21.00;99.90
61912;DHT22;49973;52.084;5.412;2023-08-12T05:12:07;21.00;99.90
61912;DHT22;49973;52.084;5.412;2023-08-12T05:14:39;21.00;99.90
61912;DHT22;49973;52.084;5.412;2023-08-12T05:17:09;21.00;99.90
61912;DHT22;49973;52.084;5.412;2023-08-12T05:19:38;21.00;99.90
61912;DHT22;49973;52.084;5.412;2023-08-12T05:22:07;21.00;99.90
61912;DHT22;49973;52.084;5.412;2023-08-12T05:24:37;21.00;99.90
61912;DHT22;49973;52.084;5.412;2023-08-12T05:27:06;21.00;99.90
61912;DHT22;49973;52.084;5.412;2023-08-12T05:29:35;20.90;99.90
61912;DHT22;49973;52.084;5.412;2023-08-12T05:32:05;21.00;99.90
61912;DHT22;49973;52.084;5.412;2023-08-12T05:34:34;21.00;99.90
61912;DHT22;49973;52.084;5.412;2023-08-12T05:37:03;21.00;99.90
61912;DHT22;49973;52.084;5.412;2023-08-12T05:39:32;21.00;99.90
61912;DHT22;49973;52.084;5.412;2023-08-12T05:42:01;21.00;99.90
61912;DHT22;49973;52.084;5.412;2023-08-12T05:44:30;21.00;99.90
61912;DHT22;49973;52.084;5.412;2023-08-12T05:46:58;21.00;99.90
61912;DHT22;49973;52.084;5.412;2023-08-12T05:49:28;21.00;99.90
61912;DHT22;49973;52.084;5.412;2023-08-12T05:51:57;21.00;99.90
61912;DHT22;49973;52.084;5.412;2023-08-12T05:54:26;20.90;99.90
61912;DHT22;49973;52.084;5.412;2023-08-12T05:56:55;20.90;99.90
61912;DHT22;49973;52.084;5.412;2023-08-12T05:59:24;20.90;99.90
61912;DHT22;49973;52.084;5.412;2023-08-12T06:01:53;20.80;99.90
61912;DHT22;49973;52.084;5.412;2023-08-12T06:04:22;20.70;99.90
61912;DHT22;49973;52.084;5.412;2023-08-12T06:06:52;20.70;99.90
61912;DHT22;49973;52.084;5.412;2023-08-12T06:09:21;20.60;99.90
61912;DHT22;49973;52.084;5.412;2023-08-12T06:11:50;20.60;99.90
61912;DHT22;49973;52.084;5.412;2023-08-12T06:14:19;20.60;99.90
61912;DHT22;49973;52.084;5.412;2023-08-12T06:16:48;20.60;99.90
61912;DHT22;49973;52.084;5.412;2023-08-12T06:19:16;20.50;99.90
61912;DHT22;49973;52.084;5.412;2023-08-12T06:21:45;20.50;99.90
61912;DHT22;49973;52.084;5.412;2023-08-12T06:24:15;20.40;99.90
61912;DHT22;49973;52.084;5.412;2023-08-12T06:26:44;20.40;99.90
61912;DHT22;49973;52.084;5.412;2023-08-12T06:29:13;20.30;99.90
61912;DHT22;49973;52.084;5.412;2023-08-12T06:31:42;20.30;99.90
61912;DHT22;49973;52.084;5.412;2023-08-12T06:34:11;20.30;99.90
61912;DHT22;49973;52.084;5.412;2023-08-12T06:36:40;20.30;99.90
61912;DHT22;49973;52.084;5.412;2023-08-12T06:39:09;20.20;99.90
61912;DHT22;49973;52.084;5.412;2023-08-12T06:41:39;20.20;99.90
61912;DHT22;49973;52.084;5.412;2023-08-12T06:44:08;20.20;99.90
61912;DHT22;49973;52.084;5.412;2023-08-12T06:46:36;20.10;99.90
61912;DHT22;49973;52.084;5.412;2023-08-12T06:49:06;20.20;99.90
61912;DHT22;49973;52.084;5.412;2023-08-12T06:51:35;20.10;99.90
61912;DHT22;49973;52.084;5.412;2023-08-12T06:54:05;20.10;99.90
61912;DHT22;49973;52.084;5.412;2023-08-12T06:56:34;20.10;99.90
61912;DHT22;49973;52.084;5.412;2023-08-12T06:59:04;20.00;99.90
61912;DHT22;49973;52.084;5.412;2023-08-12T07:01:33;20.00;99.90
61912;DHT22;49973;52.084;5.412;2023-08-12T07:04:02;20.00;99.90
61912;DHT22;49973;52.084;5.412;2023-08-12T07:06:31;20.10;99.90
61912;DHT22;49973;52.084;5.412;2023-08-12T07:09:00;20.10;99.90
61912;DHT22;49973;52.084;5.412;2023-08-12T07:11:29;20.10;99.90
61912;DHT22;49973;52.084;5.412;2023-08-12T07:13:58;20.10;99.90
61912;DHT22;49973;52.084;5.412;2023-08-12T07:16:28;20.10;99.90
61912;DHT22;49973;52.084;5.412;2023-08-12T07:18:58;20.10;99.90
61912;DHT22;49973;52.084;5.412;2023-08-12T07:21:27;20.10;99.90
61912;DHT22;49973;52.084;5.412;2023-08-12T07:23:55;20.10;99.90
61912;DHT22;49973;52.084;5.412;2023-08-12T07:26:30;20.00;99.90
61912;DHT22;49973;52.084;5.412;2023-08-12T07:28:59;20.00;99.90
61912;DHT22;49973;52.084;5.412;2023-08-12T07:31:29;20.00;99.90
61912;DHT22;49973;52.084;5.412;2023-08-12T07:33:58;20.00;99.90
61912;DHT22;49973;52.084;5.412;2023-08-12T07:36:27;20.00;99.90
61912;DHT22;49973;52.084;5.412;2023-08-12T07:38:56;20.00;99.90
61912;DHT22;49973;52.084;5.412;2023-08-12T07:41:24;19.90;99.90
61912;DHT22;49973;52.084;5.412;2023-08-12T07:43:54;19.90;99.90
61912;DHT22;49973;52.084;5.412;2023-08-12T07:46:23;19.90;99.90
61912;DHT22;49973;52.084;5.412;2023-08-12T07:48:54;19.90;99.90
61912;DHT22;49973;52.084;5.412;2023-08-12T07:51:23;19.90;99.90
61912;DHT22;49973;52.084;5.412;2023-08-12T07:53:52;19.90;99.90
61912;DHT22;49973;52.084;5.412;2023-08-12T07:56:21;19.90;99.90
61912;DHT22;49973;52.084;5.412;2023-08-12T07:58:50;20.00;99.90
61912;DHT22;49973;52.084;5.412;2023-08-12T08:01:19;20.00;99.90
61912;DHT22;49973;52.084;5.412;2023-08-12T08:03:48;20.00;99.90
61912;DHT22;49973;52.084;5.412;2023-08-12T08:06:18;20.00;99.90
61912;DHT22;49973;52.084;5.412;2023-08-12T08:08:46;20.00;99.90
61912;DHT22;49973;52.084;5.412;2023-08-12T08:11:16;20.00;99.90
61912;DHT22;49973;52.084;5.412;2023-08-12T08:13:44;20.00;99.90
61912;DHT22;49973;52.084;5.412;2023-08-12T08:16:13;20.10;99.90
61912;DHT22;49973;52.084;5.412;2023-08-12T08:18:42;20.10;99.90
61912;DHT22;49973;52.084;5.412;2023-08-12T08:21:11;20.10;99.90
61912;DHT22;49973;52.084;5.412;2023-08-12T08:23:42;20.10;99.90
61912;DHT22;49973;52.084;5.412;2023-08-12T08:26:11;20.20;99.90
61912;DHT22;49973;52.084;5.412;2023-08-12T08:28:40;20.20;99.90
61912;DHT22;49973;52.084;5.412;2023-08-12T08:31:09;20.20;99.90
61912;DHT22;49973;52.084;5.412;2023-08-12T08:33:38;20.20;99.90
61912;DHT22;49973;52.084;5.412;2023-08-12T08:36:11;20.20;99.90
61912;DHT22;49973;52.084;5.412;2023-08-12T08:38:41;20.20;99.90
61912;DHT22;49973;52.084;5.412;2023-08-12T08:41:11;20.20;99.90
61912;DHT22;49973;52.084;5.412;2023-08-12T08:43:42;20.20;99.90
61912;DHT22;49973;52.084;5.412;2023-08-12T08:46:14;20.20;99.90
61912;DHT22;49973;52.084;5.412;2023-08-12T08:48:43;20.30;99.90
61912;DHT22;49973;52.084;5.412;2023-08-12T08:51:13;20.30;99.90
61912;DHT22;49973;52.084;5.412;2023-08-12T08:53:43;20.30;99.90
61912;DHT22;49973;52.084;5.412;2023-08-12T08:56:12;20.30;99.90
61912;DHT22;49973;52.084;5.412;2023-08-12T08:58:42;20.40;99.90
61912;DHT22;49973;52.084;5.412;2023-08-12T09:01:11;20.40;99.90
61912;DHT22;49973;52.084;5.412;2023-08-12T09:03:42;20.30;99.90
61912;DHT22;49973;52.084;5.412;2023-08-12T09:06:18;20.40;99.90
61912;DHT22;49973;52.084;5.412;2023-08-12T09:08:51;20.30;99.90
61912;DHT22;49973;52.084;5.412;2023-08-12T09:11:20;20.30;99.90
61912;DHT22;49973;52.084;5.412;2023-08-12T09:13:49;20.10;99.90
61912;DHT22;49973;52.084;5.412;2023-08-12T09:16:18;19.90;99.90
61912;DHT22;49973;52.084;5.412;2023-08-12T09:18:54;19.70;99.90
61912;DHT22;49973;52.084;5.412;2023-08-12T09:21:23;19.50;99.90
61912;DHT22;49973;52.084;5.412;2023-08-12T09:23:55;19.20;99.90
61912;DHT22;49973;52.084;5.412;2023-08-12T09:26:23;19.00;99.90
61912;DHT22;49973;52.084;5.412;2023-08-12T09:28:52;18.90;99.90
61912;DHT22;49973;52.084;5.412;2023-08-12T09:31:23;18.90;99.90
61912;DHT22;49973;52.084;5.412;2023-08-12T09:33:53;18.80;99.90
61912;DHT22;49973;52.084;5.412;2023-08-12T09:36:22;18.80;99.90
61912;DHT22;49973;52.084;5.412;2023-08-12T09:38:51;18.80;99.90
61912;DHT22;49973;52.084;5.412;2023-08-12T09:41:24;18.80;99.90
61912;DHT22;49973;52.084;5.412;2023-08-12T09:43:53;18.90;99.90
61912;DHT22;49973;52.084;5.412;2023-08-12T09:46:22;18.80;99.90
61912;DHT22;49973;52.084;5.412;2023-08-12T09:48:51;18.90;99.90
61912;DHT22;49973;52.084;5.412;2023-08-12T09:51:20;18.90;99.90
61912;DHT22;49973;52.084;5.412;2023-08-12T09:53:51;18.90;99.90
61912;DHT22;49973;52.084;5.412;2023-08-12T09:56:24;18.90;99.90
61912;DHT22;49973;52.084;5.412;2023-08-12T09:58:56;18.90;99.90
61912;DHT22;49973;52.084;5.412;2023-08-12T10:01:25;18.90;99.90
61912;DHT22;49973;52.084;5.412;2023-08-12T10:03:54;19.00;99.90
61912;DHT22;49973;52.084;5.412;2023-08-12T10:06:24;18.90;99.90
61912;DHT22;49973;52.084;5.412;2023-08-12T10:08:53;19.10;99.90
61912;DHT22;49973;52.084;5.412;2023-08-12T10:11:24;19.20;99.90
61912;DHT22;49973;52.084;5.412;2023-08-12T10:13:53;19.30;99.90
61912;DHT22;49973;52.084;5.412;2023-08-12T10:16:23;19.40;99.90
61912;DHT22;49973;52.084;5.412;2023-08-12T10:18:53;19.60;99.90
61912;DHT22;49973;52.084;5.412;2023-08-12T10:21:22;19.80;99.90
61912;DHT22;49973;52.084;5.412;2023-08-12T10:23:53;20.00;99.90
61912;DHT22;49973;52.084;5.412;2023-08-12T10:26:24;20.20;99.90
61912;DHT22;49973;52.084;5.412;2023-08-12T10:28:54;20.40;99.90
61912;DHT22;49973;52.084;5.412;2023-08-12T10:31:26;20.70;99.90
61912;DHT22;49973;52.084;5.412;2023-08-12T10:33:57;21.00;99.90
61912;DHT22;49973;52.084;5.412;2023-08-12T10:36:26;21.40;99.90
61912;DHT22;49973;52.084;5.412;2023-08-12T10:38:56;21.70;99.90
61912;DHT22;49973;52.084;5.412;2023-08-12T10:41:26;21.90;99.90
61912;DHT22;49973;52.084;5.412;2023-08-12T10:43:59;22.10;99.90
61912;DHT22;49973;52.084;5.412;2023-08-12T10:46:31;22.30;99.90
61912;DHT22;49973;52.084;5.412;2023-08-12T10:49:03;22.30;99.90
61912;DHT22;49973;52.084;5.412;2023-08-12T10:51:44;22.20;99.90
61912;DHT22;49973;52.084;5.412;2023-08-12T10:54:17;22.00;99.90
61912;DHT22;49973;52.084;5.412;2023-08-12T10:57:07;21.90;99.90
61912;DHT22;49973;52.084;5.412;2023-08-12T10:59:51;21.90;99.90
61912;DHT22;49973;52.084;5.412;2023-08-12T11:02:26;22.00;99.90
61912;DHT22;49973;52.084;5.412;2023-08-12T11:04:59;22.30;99.90
61912;DHT22;49973;52.084;5.412;2023-08-12T11:07:33;22.40;99.90
61912;DHT22;49973;52.084;5.412;2023-08-12T11:10:11;22.30;99.90
61912;DHT22;49973;52.084;5.412;2023-08-12T11:12:47;22.30;99.90
61912;DHT22;49973;52.084;5.412;2023-08-12T11:15:17;22.40;99.90
61912;DHT22;49973;52.084;5.412;2023-08-12T11:17:47;22.40;99.90
61912;DHT22;49973;52.084;5.412;2023-08-12T11:20:16;22.40;99.90
61912;DHT22;49973;52.084;5.412;2023-08-12T11:22:46;22.30;99.90
61912;DHT22;49973;52.084;5.412;2023-08-12T11:25:15;22.20;99.90
61912;DHT22;49973;52.084;5.412;2023-08-12T11:27:48;22.20;99.90
61912;DHT22;49973;52.084;5.412;2023-08-12T11:30:19;22.20;99.90
61912;DHT22;49973;52.084;5.412;2023-08-12T11:32:49;22.20;99.90
61912;DHT22;49973;52.084;5.412;2023-08-12T11:35:19;22.20;99.90
61912;DHT22;49973;52.084;5.412;2023-08-12T11:37:49;22.40;99.90
61912;DHT22;49973;52.084;5.412;2023-08-12T11:40:20;22.50;99.90
61912;DHT22;49973;52.084;5.412;2023-08-12T11:42:51;22.70;99.90
61912;DHT22;49973;52.084;5.412;2023-08-12T11:45:21;22.80;99.90
61912;DHT22;49973;52.084;5.412;2023-08-12T11:47:51;22.80;99.90
61912;DHT22;49973;52.084;5.412;2023-08-12T11:50:23;22.80;99.90
61912;DHT22;49973;52.084;5.412;2023-08-12T11:52:55;22.80;99.90
61912;DHT22;49973;52.084;5.412;2023-08-12T11:55:24;22.80;99.90
61912;DHT22;49973;52.084;5.412;2023-08-12T11:57:55;22.90;99.90
61912;DHT22;49973;52.084;5.412;2023-08-12T12:00:25;23.00;99.90
61912;DHT22;49973;52.084;5.412;2023-08-12T12:02:55;23.20;99.90
61912;DHT22;49973;52.084;5.412;2023-08-12T12:05:26;23.40;99.90
61912;DHT22;49973;52.084;5.412;2023-08-12T12:07:55;23.60;99.90
61912;DHT22;49973;52.084;5.412;2023-08-12T12:10:27;23.70;99.90
61912;DHT22;49973;52.084;5.412;2023-08-12T12:13:03;23.70;99.90
61912;DHT22;49973;52.084;5.412;2023-08-12T12:15:38;23.60;99.90
61912;DHT22;49973;52.084;5.412;2023-08-12T12:18:10;23.60;99.90
61912;DHT22;49973;52.084;5.412;2023-08-12T12:20:53;23.60;99.90
61912;DHT22;49973;52.084;5.412;2023-08-12T12:23:27;23.50;99.90
61912;DHT22;49973;52.084;5.412;2023-08-12T12:25:58;23.50;99.90
61912;DHT22;49973;52.084;5.412;2023-08-12T12:28:29;23.50;99.90
61912;DHT22;49973;52.084;5.412;2023-08-12T12:30:58;23.60;99.90
61912;DHT22;49973;52.084;5.412;2023-08-12T12:33:27;23.60;99.90
61912;DHT22;49973;52.084;5.412;2023-08-12T12:35:55;23.60;99.90
61912;DHT22;49973;52.084;5.412;2023-08-12T12:38:28;23.70;99.90
61912;DHT22;49973;52.084;5.412;2023-08-12T12:40:57;23.70;99.90
61912;DHT22;49973;52.084;5.412;2023-08-12T12:43:28;23.80;99.90
61912;DHT22;49973;52.084;5.412;2023-08-12T12:45:56;23.90;99.90
61912;DHT22;49973;52.084;5.412;2023-08-12T12:48:26;23.90;99.90
61912;DHT22;49973;52.084;5.412;2023-08-12T12:50:54;23.90;99.90
61912;DHT22;49973;52.084;5.412;2023-08-12T12:53:23;24.00;99.90
61912;DHT22;49973;52.084;5.412;2023-08-12T12:55:52;24.10;99.90
61912;DHT22;49973;52.084;5.412;2023-08-12T12:58:21;24.20;99.90
61912;DHT22;49973;52.084;5.412;2023-08-12T13:00:52;24.20;99.90
61912;DHT22;49973;52.084;5.412;2023-08-12T13:03:21;24.30;99.90
61912;DHT22;49973;52.084;5.412;2023-08-12T13:05:50;24.40;99.90
61912;DHT22;49973;52.084;5.412;2023-08-12T13:08:19;24.40;99.90
61912;DHT22;49973;52.084;5.412;2023-08-12T13:10:48;24.50;99.90
61912;DHT22;49973;52.084;5.412;2023-08-12T13:13:18;24.50;99.90
61912;DHT22;49973;52.084;5.412;2023-08-12T13:15:49;24.60;99.90
61912;DHT22;49973;52.084;5.412;2023-08-12T13:18:19;24.70;99.90
61912;DHT22;49973;52.084;5.412;2023-08-12T13:20:49;24.70;99.90
61912;DHT22;49973;52.084;5.412;2023-08-12T13:23:18;24.80;99.90
61912;DHT22;49973;52.084;5.412;2023-08-12T13:25:47;24.80;99.90
61912;DHT22;49973;52.084;5.412;2023-08-12T13:28:16;24.90;99.90
61912;DHT22;49973;52.084;5.412;2023-08-12T13:30:45;24.90;99.90
61912;DHT22;49973;52.084;5.412;2023-08-12T13:33:14;25.00;99.90
61912;DHT22;49973;52.084;5.412;2023-08-12T13:35:45;25.00;99.90
61912;DHT22;49973;52.084;5.412;2023-08-12T13:38:13;25.10;99.90
61912;DHT22;49973;52.084;5.412;2023-08-12T13:40:42;25.20;99.90
61912;DHT22;49973;52.084;5.412;2023-08-12T13:43:11;25.30;99.90
61912;DHT22;49973;52.084;5.412;2023-08-12T13:45:40;25.30;99.90
61912;DHT22;49973;52.084;5.412;2023-08-12T13:48:09;25.30;99.90
61912;DHT22;49973;52.084;5.412;2023-08-12T13:50:37;25.20;99.90
61912;DHT22;49973;52.084;5.412;2023-08-12T13:53:08;25.10;99.90
61912;DHT22;49973;52.084;5.412;2023-08-12T13:55:36;24.90;99.90
61912;DHT22;49973;52.084;5.412;2023-08-12T13:58:05;24.70;99.90
61912;DHT22;49973;52.084;5.412;2023-08-12T14:00:34;24.50;99.90
61912;DHT22;49973;52.084;5.412;2023-08-12T14:03:03;24.30;99.90
61912;DHT22;49973;52.084;5.412;2023-08-12T14:05:32;24.10;99.90
61912;DHT22;49973;52.084;5.412;2023-08-12T14:08:01;24.00;99.90
61912;DHT22;49973;52.084;5.412;2023-08-12T14:10:31;24.00;99.90
61912;DHT22;49973;52.084;5.412;2023-08-12T14:13:00;23.90;99.90
61912;DHT22;49973;52.084;5.412;2023-08-12T14:15:29;23.90;99.90
61912;DHT22;49973;52.084;5.412;2023-08-12T14:17:58;23.80;99.90
61912;DHT22;49973;52.084;5.412;2023-08-12T14:20:27;23.90;99.90
61912;DHT22;49973;52.084;5.412;2023-08-12T14:22:57;23.90;99.90
61912;DHT22;49973;52.084;5.412;2023-08-12T14:25:26;23.90;99.90
61912;DHT22;49973;52.084;5.412;2023-08-12T14:27:57;23.90;99.90
61912;DHT22;49973;52.084;5.412;2023-08-12T14:30:26;23.90;99.90
61912;DHT22;49973;52.084;5.412;2023-08-12T14:32:55;23.90;99.90
61912;DHT22;49973;52.084;5.412;2023-08-12T14:35:24;23.90;99.90
61912;DHT22;49973;52.084;5.412;2023-08-12T14:37:53;23.90;99.90
61912;DHT22;49973;52.084;5.412;2023-08-12T14:40:21;23.90;99.90
61912;DHT22;49973;52.084;5.412;2023-08-12T14:42:50;23.80;99.90
61912;DHT22;49973;52.084;5.412;2023-08-12T14:45:21;23.80;99.90
61912;DHT22;49973;52.084;5.412;2023-08-12T14:47:50;23.70;99.90
61912;DHT22;49973;52.084;5.412;2023-08-12T14:50:18;23.70;99.90
61912;DHT22;49973;52.084;5.412;2023-08-12T14:52:47;23.80;99.90
61912;DHT22;49973;52.084;5.412;2023-08-12T14:55:16;23.90;99.90
61912;DHT22;49973;52.084;5.412;2023-08-12T14:57:45;24.00;99.90
61912;DHT22;49973;52.084;5.412;2023-08-12T15:00:14;24.10;99.90
61912;DHT22;49973;52.084;5.412;2023-08-12T15:02:45;24.20;99.90
61912;DHT22;49973;52.084;5.412;2023-08-12T15:05:15;24.20;99.90
61912;DHT22;49973;52.084;5.412;2023-08-12T15:07:43;24.20;99.90
61912;DHT22;49973;52.084;5.412;2023-08-12T15:10:12;24.20;99.90
61912;DHT22;49973;52.084;5.412;2023-08-12T15:12:43;24.20;99.90
61912;DHT22;49973;52.084;5.412;2023-08-12T15:15:12;24.10;99.90
61912;DHT22;49973;52.084;5.412;2023-08-12T15:17:41;24.20;99.90
61912;DHT22;49973;52.084;5.412;2023-08-12T15:20:11;24.10;99.90
61912;DHT22;49973;52.084;5.412;2023-08-12T15:22:40;24.10;99.90
61912;DHT22;49973;52.084;5.412;2023-08-12T15:25:09;24.00;99.90
61912;DHT22;49973;52.084;5.412;2023-08-12T15:27:38;23.90;99.90
61912;DHT22;49973;52.084;5.412;2023-08-12T15:30:09;23.90;99.90
61912;DHT22;49973;52.084;5.412;2023-08-12T15:32:38;23.80;99.90
61912;DHT22;49973;52.084;5.412;2023-08-12T15:35:11;23.80;99.90
61912;DHT22;49973;52.084;5.412;2023-08-12T15:37:40;23.70;99.90
61912;DHT22;49973;52.084;5.412;2023-08-12T15:40:10;23.60;99.90
61912;DHT22;49973;52.084;5.412;2023-08-12T15:42:40;23.60;99.90
61912;DHT22;49973;52.084;5.412;2023-08-12T15:45:09;23.50;99.90
61912;DHT22;49973;52.084;5.412;2023-08-12T15:47:40;23.50;99.90